createdAt,value
2017-09-13T00:00:51.364Z,0
2017-09-13T00:02:53.068Z,0
2017-09-13T00:04:54.452Z,0
2017-09-13T00:06:55.878Z,0
2017-09-13T00:08:57.283Z,0
2017-09-13T00:10:58.699Z,0
2017-09-13T00:13:00.186Z,0
2017-09-13T00:15:01.794Z,0
2017-09-13T00:17:03.276Z,0
2017-09-13T00:19:04.754Z,0
2017-09-13T00:21:06.578Z,0
2017-09-13T00:23:07.987Z,0
2017-09-13T00:25:09.474Z,0
2017-09-13T00:27:10.965Z,0
2017-09-13T00:29:12.457Z,0
2017-09-13T00:31:13.923Z,0
2017-09-13T00:33:15.384Z,0
2017-09-13T00:35:16.837Z,0
2017-09-13T00:37:18.328Z,0
2017-09-13T00:39:19.918Z,0
2017-09-13T00:42:02.332Z,0
2017-09-13T00:44:03.745Z,0
2017-09-13T00:46:05.162Z,0
2017-09-13T00:48:06.701Z,0
2017-09-13T00:50:08.149Z,0
2017-09-13T00:52:09.603Z,0
2017-09-13T00:54:11.004Z,0
2017-09-13T00:56:12.423Z,0
2017-09-13T00:58:13.835Z,0
2017-09-13T01:00:15.259Z,0
2017-09-13T01:02:16.666Z,0
2017-09-13T01:04:18.149Z,0
2017-09-13T01:06:19.607Z,0
2017-09-13T01:08:21.189Z,0
2017-09-13T01:10:22.632Z,0
2017-09-13T01:12:24.067Z,0
2017-09-13T01:14:25.479Z,0
2017-09-13T01:16:26.930Z,0
2017-09-13T01:18:28.446Z,0
2017-09-13T01:20:29.962Z,0
2017-09-13T01:22:31.485Z,0
2017-09-13T01:24:32.973Z,0
2017-09-13T01:26:34.391Z,0
2017-09-13T01:29:16.811Z,0
2017-09-13T01:31:18.226Z,0
2017-09-13T01:33:19.638Z,0
2017-09-13T01:35:21.050Z,0
2017-09-13T01:37:22.461Z,0
2017-09-13T01:39:24.079Z,0
2017-09-13T01:41:25.503Z,0
2017-09-13T01:43:26.937Z,0
2017-09-13T01:45:28.338Z,0
2017-09-13T01:47:29.752Z,0
2017-09-13T01:49:31.163Z,0
2017-09-13T01:51:32.587Z,0
2017-09-13T01:53:34.050Z,0
2017-09-13T01:55:35.472Z,0
2017-09-13T01:57:36.947Z,0
2017-09-13T01:59:38.422Z,0
2017-09-13T02:01:39.878Z,0
2017-09-13T02:03:41.831Z,0
2017-09-13T02:05:43.735Z,0
2017-09-13T02:07:45.222Z,0
2017-09-13T02:09:46.749Z,0
2017-09-13T02:11:48.299Z,0
2017-09-13T02:13:49.844Z,0
2017-09-13T02:15:51.336Z,0
2017-09-13T02:17:52.931Z,0
2017-09-13T02:19:54.417Z,0
2017-09-13T02:21:56.035Z,0
2017-09-13T02:23:57.551Z,0
2017-09-13T02:25:59.010Z,0
2017-09-13T02:28:00.484Z,0
2017-09-13T02:30:02.038Z,0
2017-09-13T02:32:03.491Z,0
2017-09-13T02:34:04.951Z,0
2017-09-13T02:36:06.457Z,0
2017-09-13T02:38:07.971Z,0
2017-09-13T02:40:09.517Z,0
2017-09-13T02:42:10.962Z,0
2017-09-13T02:44:12.447Z,0
2017-09-13T02:46:13.935Z,0
2017-09-13T02:48:15.433Z,0
2017-09-13T02:50:16.920Z,0
2017-09-13T02:52:18.376Z,0
2017-09-13T02:54:19.870Z,0
2017-09-13T02:56:21.314Z,0
2017-09-13T02:58:23.037Z,0
2017-09-13T03:00:24.536Z,0
2017-09-13T03:02:26.070Z,0
2017-09-13T03:04:27.544Z,0
2017-09-13T03:06:28.989Z,0
2017-09-13T03:08:30.514Z,0
2017-09-13T03:10:32.039Z,0
2017-09-13T03:12:33.532Z,0
2017-09-13T03:15:14.938Z,0
2017-09-13T03:17:16.348Z,0
2017-09-13T03:19:58.734Z,0
2017-09-13T03:22:00.141Z,0
2017-09-13T03:24:01.565Z,0
2017-09-13T03:26:03.657Z,0
2017-09-13T03:28:05.115Z,0
2017-09-13T03:30:47.509Z,0
2017-09-13T03:32:49.631Z,0
2017-09-13T03:34:51.088Z,0
2017-09-13T03:36:52.615Z,0
2017-09-13T03:38:54.072Z,0
2017-09-13T03:40:55.509Z,0
2017-09-13T03:42:57.065Z,0
2017-09-13T03:44:58.547Z,0
2017-09-13T03:47:00.072Z,0
2017-09-13T03:49:01.601Z,0
2017-09-13T03:51:44.906Z,0
2017-09-13T03:53:46.235Z,0
2017-09-13T03:55:47.648Z,0
2017-09-13T03:57:49.059Z,0
2017-09-13T03:59:50.472Z,0
2017-09-13T04:01:51.888Z,0
2017-09-13T04:03:53.599Z,0
2017-09-13T04:05:55.008Z,0
2017-09-13T04:08:38.848Z,0
2017-09-13T04:10:40.506Z,0
2017-09-13T04:12:41.896Z,0
2017-09-13T04:14:43.345Z,0
2017-09-13T04:16:44.780Z,0
2017-09-13T04:19:27.194Z,0
2017-09-13T04:21:29.723Z,0
2017-09-13T04:23:31.548Z,0
2017-09-13T04:25:33.137Z,0
2017-09-13T04:27:34.588Z,0
2017-09-13T04:29:36.006Z,0
2017-09-13T04:31:37.424Z,0
2017-09-13T04:33:38.836Z,0
2017-09-13T04:36:21.230Z,0
2017-09-13T04:38:22.646Z,0
2017-09-13T04:40:24.057Z,0
2017-09-13T04:42:25.477Z,0
2017-09-13T04:44:26.876Z,0
2017-09-13T04:46:28.302Z,0
2017-09-13T04:48:29.717Z,0
2017-09-13T04:50:31.129Z,0
2017-09-13T04:52:32.545Z,0
2017-09-13T04:55:14.947Z,0
2017-09-13T04:57:16.363Z,0
2017-09-13T04:59:17.774Z,0
2017-09-13T05:01:19.190Z,0
2017-09-13T05:03:20.619Z,0
2017-09-13T05:05:22.090Z,0
2017-09-13T05:07:23.575Z,0
2017-09-13T05:09:25.105Z,0
2017-09-13T05:11:26.590Z,0
2017-09-13T05:13:28.574Z,0
2017-09-13T05:15:30.053Z,0
2017-09-13T05:17:31.548Z,0
2017-09-13T05:19:33.008Z,0
2017-09-13T05:21:34.442Z,0
2017-09-13T05:23:35.969Z,0
2017-09-13T05:26:18.369Z,0
2017-09-13T05:28:19.780Z,0
2017-09-13T05:30:21.198Z,0
2017-09-13T05:32:22.611Z,0
2017-09-13T05:34:24.026Z,0
2017-09-13T05:36:25.444Z,0
2017-09-13T05:38:26.856Z,0
2017-09-13T05:40:28.294Z,0
2017-09-13T05:42:29.719Z,0
2017-09-13T05:44:31.137Z,0
2017-09-13T05:46:32.554Z,0
2017-09-13T05:48:34.124Z,0
2017-09-13T05:50:35.851Z,0
2017-09-13T05:52:37.350Z,0
2017-09-13T05:54:38.906Z,0
2017-09-13T05:56:40.385Z,0
2017-09-13T05:58:41.845Z,0
2017-09-13T06:00:43.269Z,0
2017-09-13T06:02:44.680Z,5
2017-09-13T06:04:46.099Z,5
2017-09-13T06:06:47.514Z,0
2017-09-13T06:08:48.933Z,5
2017-09-13T06:10:50.369Z,5
2017-09-13T06:12:51.811Z,5
2017-09-13T06:14:53.239Z,15
2017-09-13T06:16:54.794Z,25
2017-09-13T06:18:56.207Z,20
2017-09-13T06:20:57.624Z,20
2017-09-13T06:22:59.076Z,35
2017-09-13T06:25:00.522Z,15
2017-09-13T06:27:01.974Z,20
2017-09-13T06:29:45.039Z,35
2017-09-13T06:31:46.365Z,40
2017-09-13T06:33:47.781Z,30
2017-09-13T06:35:49.197Z,50
2017-09-13T06:37:50.612Z,30
2017-09-13T06:39:52.030Z,95
2017-09-13T06:41:53.450Z,50
2017-09-13T06:43:54.968Z,75
2017-09-13T06:46:37.352Z,85
2017-09-13T06:48:38.767Z,150
2017-09-13T06:50:40.199Z,90
2017-09-13T06:52:41.617Z,50
2017-09-13T06:54:43.042Z,85
2017-09-13T06:56:44.458Z,35
2017-09-13T06:58:45.875Z,55
2017-09-13T07:01:28.299Z,40
2017-09-13T07:03:29.708Z,30
2017-09-13T07:05:31.129Z,20
2017-09-13T07:07:32.551Z,15
2017-09-13T07:09:33.971Z,10
2017-09-13T07:11:35.392Z,10
2017-09-13T07:13:36.994Z,15
2017-09-13T07:16:19.519Z,20
2017-09-13T07:19:01.912Z,20
2017-09-13T07:21:03.346Z,45
2017-09-13T07:23:04.762Z,60
2017-09-13T07:25:06.179Z,20
2017-09-13T07:27:07.596Z,20
2017-09-13T07:29:09.139Z,15
2017-09-13T07:31:10.562Z,15
2017-09-13T07:33:12.037Z,15
2017-09-13T07:35:13.452Z,15
2017-09-13T07:37:14.870Z,15
2017-09-13T07:39:16.355Z,15
2017-09-13T07:41:18.200Z,20
2017-09-13T07:43:19.720Z,25
2017-09-13T07:45:21.135Z,20
2017-09-13T07:47:22.554Z,20
2017-09-13T07:49:23.985Z,10
2017-09-13T07:51:25.447Z,10
2017-09-13T07:53:26.879Z,10
2017-09-13T07:55:28.305Z,15
2017-09-13T07:57:29.720Z,15
2017-09-13T07:59:31.229Z,10
2017-09-13T08:01:32.645Z,5
2017-09-13T08:03:34.065Z,5
2017-09-13T08:06:17.268Z,0
2017-09-13T08:08:18.702Z,5
2017-09-13T08:10:20.371Z,25
2017-09-13T08:12:21.808Z,40
2017-09-13T08:14:23.223Z,90
2017-09-13T08:16:24.641Z,65
2017-09-13T08:18:26.067Z,130
2017-09-13T08:20:27.570Z,140
2017-09-13T08:22:29.101Z,140
2017-09-13T08:24:30.585Z,145
2017-09-13T08:26:32.090Z,75
2017-09-13T08:28:33.611Z,135
2017-09-13T08:30:35.078Z,130
2017-09-13T08:32:36.611Z,140
2017-09-13T08:34:38.070Z,60
2017-09-13T08:36:39.706Z,60
2017-09-13T08:38:41.222Z,135
2017-09-13T08:40:42.767Z,35
2017-09-13T08:42:44.234Z,40
2017-09-13T08:44:45.735Z,105
2017-09-13T08:46:47.228Z,115
2017-09-13T08:48:48.676Z,120
2017-09-13T08:50:50.155Z,125
2017-09-13T08:53:32.890Z,90
2017-09-13T08:55:34.312Z,105
2017-09-13T08:57:35.848Z,110
2017-09-13T08:59:37.246Z,95
2017-09-13T09:01:38.692Z,110
2017-09-13T09:03:40.106Z,60
2017-09-13T09:05:41.791Z,65
2017-09-13T09:08:23.532Z,65
2017-09-13T09:10:24.901Z,45
2017-09-13T09:12:26.698Z,65
2017-09-13T09:14:28.082Z,60
2017-09-13T09:16:29.511Z,60
2017-09-13T09:18:30.933Z,50
2017-09-13T09:20:32.357Z,50
2017-09-13T09:22:33.779Z,70
2017-09-13T09:24:35.328Z,60
2017-09-13T09:26:36.750Z,85
2017-09-13T09:28:38.168Z,55
2017-09-13T09:30:39.614Z,60
2017-09-13T09:32:41.063Z,50
2017-09-13T09:34:42.502Z,100
2017-09-13T09:36:43.931Z,95
2017-09-13T09:39:26.328Z,50
2017-09-13T09:41:27.752Z,105
2017-09-13T09:43:29.176Z,60
2017-09-13T09:45:30.629Z,90
2017-09-13T09:47:32.037Z,60
2017-09-13T09:49:33.560Z,125
2017-09-13T09:51:35.026Z,135
2017-09-13T09:53:36.446Z,50
2017-09-13T09:56:19.101Z,40
2017-09-13T09:58:20.478Z,20
2017-09-13T10:00:21.911Z,40
2017-09-13T10:02:23.334Z,45
2017-09-13T10:04:24.767Z,40
2017-09-13T10:06:26.180Z,130
2017-09-13T10:08:27.601Z,65
2017-09-13T10:10:29.050Z,45
2017-09-13T10:12:30.487Z,170
2017-09-13T10:14:31.905Z,165
2017-09-13T10:16:33.329Z,60
2017-09-13T10:18:34.750Z,60
2017-09-13T10:20:36.305Z,165
2017-09-13T10:22:37.869Z,150
2017-09-13T10:24:39.305Z,40
2017-09-13T10:26:40.751Z,30
2017-09-13T10:28:42.204Z,20
2017-09-13T10:30:43.700Z,15
2017-09-13T10:32:45.260Z,20
2017-09-13T10:34:46.883Z,25
2017-09-13T10:36:48.648Z,45
2017-09-13T10:38:50.387Z,130
2017-09-13T10:40:51.906Z,155
2017-09-13T10:42:53.405Z,155
2017-09-13T10:44:54.918Z,140
2017-09-13T10:46:56.490Z,105
2017-09-13T10:48:58.118Z,140
2017-09-13T10:50:59.655Z,145
2017-09-13T10:53:01.106Z,145
2017-09-13T10:55:02.667Z,155
2017-09-13T10:57:04.174Z,155
2017-09-13T10:59:46.594Z,135
2017-09-13T11:01:48.013Z,50
2017-09-13T11:03:49.523Z,150
2017-09-13T11:05:51.006Z,160
2017-09-13T11:07:52.418Z,100
2017-09-13T11:09:53.903Z,50
2017-09-13T11:11:55.343Z,50
2017-09-13T11:13:56.770Z,55
2017-09-13T11:15:58.208Z,55
2017-09-13T11:17:59.629Z,70
2017-09-13T11:20:01.054Z,70
2017-09-13T11:22:02.608Z,145
2017-09-13T11:24:04.148Z,90
2017-09-13T11:26:05.616Z,145
2017-09-13T11:28:07.093Z,135
2017-09-13T11:30:08.531Z,35
2017-09-13T11:32:09.955Z,135
2017-09-13T11:34:11.383Z,120
2017-09-13T11:36:12.804Z,150
2017-09-13T11:38:14.221Z,135
2017-09-13T11:40:15.711Z,120
2017-09-13T11:42:17.134Z,85
2017-09-13T11:44:18.563Z,150
2017-09-13T11:46:19.981Z,140
2017-09-13T11:48:21.461Z,55
2017-09-13T11:50:22.983Z,55
2017-09-13T11:52:24.579Z,60
2017-09-13T11:54:26.062Z,105
2017-09-13T11:56:27.550Z,130
2017-09-13T11:58:28.999Z,40
2017-09-13T12:00:30.453Z,40
2017-09-13T12:02:31.942Z,35
2017-09-13T12:04:33.448Z,25
2017-09-13T12:06:34.900Z,15
2017-09-13T12:08:36.387Z,25
2017-09-13T12:10:37.918Z,35
2017-09-13T12:12:39.583Z,25
2017-09-13T12:14:41.134Z,35
2017-09-13T12:16:42.642Z,50
2017-09-13T12:18:44.194Z,50
2017-09-13T12:20:45.704Z,45
2017-09-13T12:22:47.183Z,30
2017-09-13T12:24:48.748Z,35
2017-09-13T12:26:50.227Z,40
2017-09-13T12:28:51.719Z,40
2017-09-13T12:30:53.141Z,40
2017-09-13T12:32:54.569Z,35
2017-09-13T12:34:55.992Z,30
2017-09-13T12:36:57.409Z,30
2017-09-13T12:38:58.832Z,30
2017-09-13T12:41:00.272Z,35
2017-09-13T12:43:01.704Z,40
2017-09-13T12:45:03.206Z,50
2017-09-13T12:47:04.632Z,40
2017-09-13T12:49:48.150Z,35
2017-09-13T12:51:49.539Z,65
2017-09-13T12:53:50.968Z,120
2017-09-13T12:55:52.394Z,125
2017-09-13T12:57:53.907Z,35
2017-09-13T12:59:55.426Z,45
2017-09-13T13:01:56.946Z,35
2017-09-13T13:03:58.373Z,40
2017-09-13T13:05:59.793Z,45
2017-09-13T13:08:01.216Z,80
2017-09-13T13:10:02.645Z,120
2017-09-13T13:12:04.116Z,40
2017-09-13T13:14:05.708Z,40
2017-09-13T13:16:07.247Z,40
2017-09-13T13:18:08.761Z,30
2017-09-13T13:20:10.399Z,35
2017-09-13T13:22:11.832Z,30
2017-09-13T13:24:13.372Z,30
2017-09-13T13:26:14.931Z,35
2017-09-13T13:28:16.428Z,65
2017-09-13T13:30:17.932Z,100
2017-09-13T13:32:19.426Z,100
2017-09-13T13:34:20.898Z,35
2017-09-13T13:36:22.380Z,30
2017-09-13T13:38:23.830Z,25
2017-09-13T13:40:25.656Z,25
2017-09-13T13:42:27.173Z,30
2017-09-13T13:44:28.650Z,40
2017-09-13T13:46:30.155Z,45
2017-09-13T13:48:31.677Z,100
2017-09-13T13:50:33.154Z,30
2017-09-13T13:52:34.679Z,35
2017-09-13T13:54:36.216Z,40
2017-09-13T13:56:37.703Z,35
2017-09-13T13:58:39.184Z,35
2017-09-13T14:00:40.650Z,50
2017-09-13T14:02:42.479Z,45
2017-09-13T14:04:44.344Z,100
2017-09-13T14:06:45.892Z,40
2017-09-13T14:08:47.393Z,30
2017-09-13T14:10:48.879Z,95
2017-09-13T14:12:50.544Z,30
2017-09-13T14:14:51.992Z,90
2017-09-13T14:16:53.550Z,25
2017-09-13T14:18:55.079Z,85
2017-09-13T14:20:56.595Z,25
2017-09-13T14:22:58.080Z,85
2017-09-13T14:24:59.536Z,85
2017-09-13T14:27:00.978Z,30
2017-09-13T14:29:02.403Z,25
2017-09-13T14:31:03.828Z,75
2017-09-13T14:33:05.251Z,25
2017-09-13T14:35:06.683Z,45
2017-09-13T14:37:08.112Z,45
2017-09-13T14:39:09.530Z,55
2017-09-13T14:41:10.966Z,70
2017-09-13T14:43:12.414Z,60
2017-09-13T14:45:13.847Z,70
2017-09-13T14:47:15.272Z,65
2017-09-13T14:49:16.700Z,60
2017-09-13T14:51:18.244Z,20
2017-09-13T14:53:19.976Z,25
2017-09-13T14:55:21.469Z,30
2017-09-13T14:57:22.894Z,40
2017-09-13T14:59:24.415Z,25
2017-09-13T15:02:06.845Z,50
2017-09-13T15:04:08.253Z,50
2017-09-13T15:06:09.784Z,45
2017-09-13T15:08:11.205Z,45
2017-09-13T15:10:12.626Z,45
2017-09-13T15:12:14.048Z,45
2017-09-13T15:14:15.472Z,45
2017-09-13T15:16:16.892Z,45
2017-09-13T15:18:18.315Z,45
2017-09-13T15:20:19.740Z,40
2017-09-13T15:22:21.173Z,40
2017-09-13T15:24:22.607Z,35
2017-09-13T15:26:24.033Z,20
2017-09-13T15:28:25.455Z,30
2017-09-13T15:30:26.874Z,25
2017-09-13T15:32:28.314Z,25
2017-09-13T15:34:29.745Z,35
2017-09-13T15:36:31.197Z,45
2017-09-13T15:38:32.686Z,40
2017-09-13T15:40:34.213Z,35
2017-09-13T15:42:35.641Z,35
2017-09-13T15:44:37.153Z,20
2017-09-13T15:46:38.616Z,35
2017-09-13T15:48:40.122Z,25
2017-09-13T15:50:41.548Z,25
2017-09-13T15:52:43.047Z,25
2017-09-13T15:54:44.654Z,20
2017-09-13T15:56:46.143Z,20
2017-09-13T15:58:47.627Z,20
2017-09-13T16:00:49.090Z,20
2017-09-13T16:02:50.546Z,30
2017-09-13T16:04:52.175Z,30
2017-09-13T16:06:53.705Z,20
2017-09-13T16:08:55.185Z,20
2017-09-13T16:10:56.665Z,15
2017-09-13T16:12:58.128Z,15
2017-09-13T16:14:59.606Z,15
2017-09-13T16:17:01.105Z,15
2017-09-13T16:19:02.530Z,15
2017-09-13T16:21:04.030Z,15
2017-09-13T16:23:05.489Z,15
2017-09-13T16:25:07.011Z,15
2017-09-13T16:27:08.550Z,15
2017-09-13T16:29:10.079Z,10
2017-09-13T16:31:11.606Z,10
2017-09-13T16:33:13.128Z,10
2017-09-13T16:35:14.579Z,10
2017-09-13T16:37:16.123Z,10
2017-09-13T16:39:17.619Z,10
2017-09-13T16:41:19.124Z,10
2017-09-13T16:43:20.607Z,5
2017-09-13T16:45:22.085Z,5
2017-09-13T16:47:23.607Z,5
2017-09-13T16:49:25.135Z,5
2017-09-13T16:51:26.635Z,5
2017-09-13T16:53:28.175Z,5
2017-09-13T16:55:29.676Z,5
2017-09-13T16:57:31.156Z,5
2017-09-13T16:59:32.677Z,5
2017-09-13T17:01:34.163Z,0
2017-09-13T17:03:35.698Z,0
2017-09-13T17:05:37.160Z,0
2017-09-13T17:07:38.667Z,0
2017-09-13T17:09:40.182Z,0
2017-09-13T17:11:41.650Z,0
2017-09-13T17:13:43.145Z,0
2017-09-13T17:15:44.605Z,0
2017-09-13T17:17:46.075Z,0
2017-09-13T17:19:47.550Z,0
2017-09-13T17:21:49.045Z,0
2017-09-13T17:24:31.458Z,0
2017-09-13T17:26:32.874Z,0
2017-09-13T17:28:34.296Z,0
2017-09-13T17:30:35.720Z,0
2017-09-13T17:32:37.229Z,0
2017-09-13T17:34:38.689Z,0
2017-09-13T17:36:40.147Z,0
2017-09-13T17:38:41.567Z,0
2017-09-13T17:40:42.985Z,0
2017-09-13T17:42:44.399Z,0
2017-09-13T17:44:45.819Z,0
2017-09-13T17:46:47.238Z,0
2017-09-13T17:48:48.650Z,0
2017-09-13T17:50:50.083Z,0
2017-09-13T17:52:51.510Z,0
2017-09-13T17:54:52.934Z,0
2017-09-13T17:56:54.381Z,0
2017-09-13T17:58:55.797Z,0
2017-09-13T18:00:57.215Z,0
2017-09-13T18:02:58.630Z,0
2017-09-13T18:05:00.046Z,0
2017-09-13T18:07:01.462Z,0
2017-09-13T18:09:02.886Z,0
2017-09-13T18:11:45.296Z,0
2017-09-13T18:13:46.705Z,0
2017-09-13T18:15:48.120Z,0
2017-09-13T18:17:49.538Z,0
2017-09-13T18:19:51.030Z,0
2017-09-13T18:21:52.448Z,0
2017-09-13T18:23:54.010Z,0
2017-09-13T18:25:55.385Z,0
2017-09-13T18:27:56.835Z,0
2017-09-13T18:29:58.250Z,0
2017-09-13T18:31:59.666Z,0
2017-09-13T18:34:01.082Z,0
2017-09-13T18:36:02.501Z,0
2017-09-13T18:38:03.918Z,0
2017-09-13T18:40:05.333Z,0
2017-09-13T18:42:06.757Z,0
2017-09-13T18:44:08.175Z,0
2017-09-13T18:46:09.585Z,0
2017-09-13T18:48:11.004Z,0
2017-09-13T18:50:12.414Z,0
2017-09-13T18:52:13.835Z,0
2017-09-13T18:54:15.427Z,0
2017-09-13T18:56:16.915Z,0
2017-09-13T18:58:18.421Z,0
2017-09-13T19:00:19.836Z,0
2017-09-13T19:02:21.346Z,0
2017-09-13T19:04:22.849Z,0
2017-09-13T19:06:24.314Z,0
2017-09-13T19:08:25.730Z,0
2017-09-13T19:10:27.172Z,0
2017-09-13T19:12:28.628Z,0
2017-09-13T19:14:30.087Z,0
2017-09-13T19:16:31.544Z,0
2017-09-13T19:18:33.011Z,0
2017-09-13T19:20:34.565Z,0
2017-09-13T19:22:36.041Z,0
2017-09-13T19:24:37.918Z,0
2017-09-13T19:26:39.395Z,0
2017-09-13T19:28:40.887Z,0
2017-09-13T19:30:42.371Z,0
2017-09-13T19:32:43.851Z,0
2017-09-13T19:34:45.347Z,0
2017-09-13T19:36:46.886Z,0
2017-09-13T19:38:48.368Z,0
2017-09-13T19:40:49.871Z,0
2017-09-13T19:42:51.407Z,0
2017-09-13T19:44:52.936Z,0
2017-09-13T19:47:35.330Z,0
2017-09-13T19:49:37.237Z,0
2017-09-13T19:51:39.216Z,0
2017-09-13T19:53:40.573Z,0
2017-09-13T19:55:42.000Z,0
2017-09-13T19:57:43.438Z,0
2017-09-13T19:59:44.852Z,0
2017-09-13T20:01:46.266Z,0
2017-09-13T20:03:47.685Z,0
2017-09-13T20:05:49.097Z,0
2017-09-13T20:07:50.510Z,0
2017-09-13T20:09:51.922Z,0
2017-09-13T20:11:53.341Z,0
2017-09-13T20:13:54.780Z,0
2017-09-13T20:15:56.213Z,0
2017-09-13T20:17:57.624Z,0
2017-09-13T20:19:59.049Z,0
2017-09-13T20:22:00.469Z,0
2017-09-13T20:24:01.897Z,0
2017-09-13T20:26:03.318Z,0
2017-09-13T20:28:04.734Z,0
2017-09-13T20:30:06.154Z,0
2017-09-13T20:32:07.715Z,0
2017-09-13T20:34:09.136Z,0
2017-09-13T20:36:10.545Z,0
2017-09-13T20:38:11.973Z,0
2017-09-13T20:40:13.398Z,0
2017-09-13T20:42:14.810Z,0
2017-09-13T20:44:16.251Z,0
2017-09-13T20:46:17.756Z,0
2017-09-13T20:48:19.303Z,0
2017-09-13T20:50:20.732Z,0
2017-09-13T20:52:22.143Z,0
2017-09-13T20:54:23.561Z,0
2017-09-13T20:56:24.972Z,0
2017-09-13T20:58:26.413Z,0
2017-09-13T21:00:27.827Z,0
2017-09-13T21:02:29.258Z,0
2017-09-13T21:04:30.669Z,0
2017-09-13T21:06:32.078Z,0
2017-09-13T21:08:33.505Z,0
2017-09-13T21:10:34.921Z,0
2017-09-13T21:12:36.339Z,0
2017-09-13T21:14:37.791Z,0
2017-09-13T21:16:39.209Z,0
2017-09-13T21:18:40.613Z,0
2017-09-13T21:21:23.050Z,0
2017-09-13T21:23:24.464Z,0
2017-09-13T21:25:25.881Z,0
2017-09-13T21:27:27.447Z,0
2017-09-13T21:29:29.043Z,0
2017-09-13T21:31:30.415Z,0
2017-09-13T21:33:31.833Z,0
2017-09-13T21:35:33.244Z,0
2017-09-13T21:38:16.314Z,0
2017-09-13T21:40:17.694Z,0
2017-09-13T21:42:19.109Z,0
2017-09-13T21:44:20.522Z,0
2017-09-13T21:46:21.930Z,0
2017-09-13T21:48:24.233Z,0
2017-09-13T21:50:25.673Z,0
2017-09-13T21:52:27.086Z,0
2017-09-13T21:54:28.505Z,0
2017-09-13T21:56:29.941Z,0
2017-09-13T21:58:31.363Z,0
2017-09-13T22:00:32.964Z,0
2017-09-13T22:02:34.412Z,0
2017-09-13T22:04:35.910Z,0
2017-09-13T22:06:37.412Z,0
2017-09-13T22:08:38.863Z,0
2017-09-13T22:10:40.427Z,0
2017-09-13T22:12:41.984Z,0
2017-09-13T22:14:43.403Z,0
2017-09-13T22:16:44.817Z,0
2017-09-13T22:18:46.250Z,0
2017-09-13T22:20:47.790Z,0
2017-09-13T22:22:49.628Z,0
2017-09-13T22:25:32.030Z,0
2017-09-13T22:27:33.436Z,0
2017-09-13T22:29:34.860Z,0
2017-09-13T22:31:36.278Z,0
2017-09-13T22:33:37.687Z,0
2017-09-13T22:35:39.256Z,0
2017-09-13T22:37:40.925Z,0
2017-09-13T22:39:42.440Z,0
2017-09-13T22:41:43.844Z,0
2017-09-13T22:43:45.257Z,0
2017-09-13T22:45:46.696Z,0
2017-09-13T22:47:48.108Z,0
2017-09-13T22:49:49.543Z,0
2017-09-13T22:51:50.960Z,0
2017-09-13T22:53:52.454Z,0
2017-09-13T22:56:34.729Z,0
2017-09-13T22:58:36.270Z,0
2017-09-13T23:00:37.677Z,0
2017-09-13T23:02:39.078Z,0
2017-09-13T23:04:40.491Z,0
2017-09-13T23:06:41.904Z,0
2017-09-13T23:08:43.368Z,0
2017-09-13T23:10:44.852Z,0
2017-09-13T23:13:27.244Z,0
2017-09-13T23:15:28.655Z,0
2017-09-13T23:17:30.282Z,0
2017-09-13T23:19:31.697Z,0
2017-09-13T23:21:33.108Z,0
2017-09-13T23:23:34.538Z,0
2017-09-13T23:25:35.960Z,0
2017-09-13T23:28:18.360Z,0
2017-09-13T23:30:19.772Z,0
2017-09-13T23:32:21.338Z,0
2017-09-13T23:34:22.763Z,0
2017-09-13T23:36:24.171Z,0
2017-09-13T23:38:25.585Z,0
2017-09-13T23:40:27.011Z,0
2017-09-13T23:42:28.424Z,0
2017-09-13T23:44:29.835Z,0
2017-09-13T23:46:31.248Z,0
2017-09-13T23:48:32.658Z,0
2017-09-13T23:50:34.095Z,0
2017-09-13T23:52:35.517Z,0
2017-09-13T23:54:36.935Z,0
2017-09-13T23:56:38.347Z,0
2017-09-13T23:58:39.762Z,0
